Repülésmeteorológia

  • METAR LHSM 250030Z NIL=
  • METAR LHSM 250000Z NIL=
  • METAR LHSM 241945Z 34010KT CAVOK 16/11 Q1018 RESHRA=
  • METAR LHSM 241915Z 34008KT 9999 -SHRA FEW026 SCT053 BKN066 16/12
  • METAR LHSM 241845Z 29006KT 9999 FEW026 SCT083 BKN200 15/12 Q1017=

  • TAF LHSM 241115Z 2412/2421 30008KT CAVOK
  • TAF LHSM 240815Z 2409/2418 33012G22KT 9999 SCT040 BKN080
  • TAF LHSM 240515Z 2406/2415 28003KT CAVOK BECMG 2406/2409 34012KT
  • TAF LHSM 231115Z 2312/2321 33009KT 9999 SCT025
  • TAF LHSM 230815Z 2309/2318 33007KT 9999 SCT035 BKN100